Terminal Aerodrome Forecast
Issued by NWS

Home | Current Version | Previous Version | Text Only | Print | Product List | Glossary On
Versions: 1 2 3 4 5 6 7 8 9 10 11 12 13 14 15 16 17 18 19
000
FTUS45 KGJT 241134
TAFEGE
TAF
KEGE 241134Z 2412/2512 23004KT P6SM FEW060 SCT080
     FM242000 23015G31KT P6SM VCSH OVC070
     FM250400 25006KT P6SM -SHRA OVC035
     FM251100 24005KT 6SM -SHSNRA BKN030
      AMD LTD TO CLD VIS AND WIND TIL 241300=

USA.gov is the U.S. government's official web portal to all federal, state and local government web resources and services.